createdAt,value
2022-11-09T00:00:24.148Z,11.27
2022-11-09T00:01:24.109Z,11.27
2022-11-09T00:02:24.103Z,11.29
2022-11-09T00:03:24.090Z,11.30
2022-11-09T00:04:24.087Z,11.32
2022-11-09T00:05:24.101Z,11.32
2022-11-09T00:06:24.040Z,11.35
2022-11-09T00:07:24.031Z,11.35
2022-11-09T00:08:24.017Z,11.37
2022-11-09T00:09:24.241Z,11.36
2022-11-09T00:10:23.992Z,11.37
2022-11-09T00:11:23.960Z,11.37
2022-11-09T00:12:23.952Z,11.40
2022-11-09T00:13:26.943Z,11.40
2022-11-09T00:14:26.995Z,11.41
2022-11-09T00:15:23.952Z,11.37
2022-11-09T00:16:23.904Z,11.35
2022-11-09T00:17:23.887Z,11.32
2022-11-09T00:18:23.906Z,11.29
2022-11-09T00:19:23.852Z,11.29
2022-11-09T00:20:23.856Z,11.25
2022-11-09T00:21:23.940Z,11.25
2022-11-09T00:22:23.834Z,11.25
2022-11-09T00:23:23.865Z,11.22
2022-11-09T00:24:23.815Z,11.22
2022-11-09T00:25:23.787Z,11.18
2022-11-09T00:26:23.756Z,11.19
2022-11-09T00:27:23.757Z,11.22
2022-11-09T00:28:23.818Z,11.23
2022-11-09T00:29:23.761Z,11.26
2022-11-09T00:30:23.733Z,11.29
2022-11-09T00:31:23.697Z,11.30
2022-11-09T00:32:27.635Z,11.33
2022-11-09T00:33:26.681Z,11.33
2022-11-09T00:34:26.671Z,11.36
2022-11-09T00:35:23.638Z,11.35
2022-11-09T00:36:23.618Z,11.33
2022-11-09T00:37:23.750Z,11.32
2022-11-09T00:38:23.619Z,11.35
2022-11-09T00:39:23.561Z,11.32
2022-11-09T00:40:23.596Z,11.33
2022-11-09T00:41:23.542Z,11.32
2022-11-09T00:42:23.540Z,11.32
2022-11-09T00:43:23.703Z,11.32
2022-11-09T00:44:23.525Z,11.30
2022-11-09T00:45:23.483Z,11.29
2022-11-09T00:46:23.518Z,11.27
2022-11-09T00:47:23.467Z,11.27
2022-11-09T00:48:23.472Z,11.26
2022-11-09T00:49:23.464Z,11.29
2022-11-09T00:50:23.442Z,11.27
2022-11-09T00:51:23.422Z,11.29
2022-11-09T00:52:23.427Z,11.27
2022-11-09T00:53:26.367Z,11.27
2022-11-09T00:54:26.427Z,11.29
2022-11-09T00:55:23.327Z,11.26
2022-11-09T00:56:23.351Z,11.25
2022-11-09T00:57:23.309Z,11.23
2022-11-09T00:58:23.299Z,11.22
2022-11-09T00:59:23.301Z,11.19
2022-11-09T01:00:23.303Z,11.18
2022-11-09T01:01:23.299Z,11.15
2022-11-09T01:02:23.309Z,11.17
2022-11-09T01:03:23.230Z,11.15
2022-11-09T01:04:23.217Z,11.15
2022-11-09T01:05:23.200Z,11.15
2022-11-09T01:06:23.210Z,11.14
2022-11-09T01:07:23.205Z,11.15
2022-11-09T01:08:23.213Z,11.15
2022-11-09T01:09:23.153Z,11.15
2022-11-09T01:10:23.141Z,11.14
2022-11-09T01:11:23.123Z,11.12
2022-11-09T01:12:23.101Z,11.14
2022-11-09T01:13:26.123Z,11.12
2022-11-09T01:14:26.081Z,11.17
2022-11-09T01:15:23.112Z,11.12
2022-11-09T01:16:23.032Z,11.12
2022-11-09T01:17:23.024Z,11.11
2022-11-09T01:18:23.028Z,11.11
2022-11-09T01:19:23.003Z,11.08
2022-11-09T01:20:22.984Z,11.08
2022-11-09T01:21:22.995Z,11.05
2022-11-09T01:22:22.967Z,11.04
2022-11-09T01:23:22.950Z,11.02
2022-11-09T01:24:22.937Z,11.00
2022-11-09T01:25:22.946Z,10.97
2022-11-09T01:26:22.907Z,10.97
2022-11-09T01:27:22.897Z,10.94
2022-11-09T01:28:22.867Z,10.93
2022-11-09T01:29:22.838Z,10.93
2022-11-09T01:30:22.859Z,10.92
2022-11-09T01:31:22.878Z,10.93
2022-11-09T01:32:22.808Z,10.90
2022-11-09T01:33:25.806Z,10.90
2022-11-09T01:34:25.790Z,10.94
2022-11-09T01:35:22.769Z,10.93
2022-11-09T01:36:22.828Z,10.96
2022-11-09T01:37:22.729Z,10.96
2022-11-09T01:38:22.731Z,10.97
2022-11-09T01:39:22.709Z,10.96
2022-11-09T01:40:22.719Z,10.96
2022-11-09T01:41:22.719Z,10.94
2022-11-09T01:42:22.721Z,10.96
2022-11-09T01:43:22.914Z,10.97
2022-11-09T01:44:22.650Z,11.00
2022-11-09T01:45:22.624Z,11.00
2022-11-09T01:46:22.612Z,11.02
2022-11-09T01:47:22.593Z,11.02
2022-11-09T01:48:22.641Z,11.05
2022-11-09T01:49:22.575Z,11.05
2022-11-09T01:50:22.554Z,11.07
2022-11-09T01:51:22.569Z,11.08
2022-11-09T01:52:22.703Z,11.12
2022-11-09T01:53:25.766Z,11.11
2022-11-09T01:54:25.705Z,11.12
2022-11-09T01:55:22.527Z,11.14
2022-11-09T01:56:22.685Z,11.17
2022-11-09T01:57:22.603Z,11.19
2022-11-09T01:58:22.476Z,11.19
2022-11-09T01:59:22.835Z,11.23
2022-11-09T02:00:22.658Z,11.26
2022-11-09T02:01:22.638Z,11.25
2022-11-09T02:02:22.533Z,11.26
2022-11-09T02:03:22.698Z,11.23
2022-11-09T02:04:22.509Z,11.23
2022-11-09T02:05:22.459Z,11.23
2022-11-09T02:06:22.619Z,11.25
2022-11-09T02:07:22.425Z,11.22
2022-11-09T02:08:22.516Z,11.22
2022-11-09T02:09:22.408Z,11.19
2022-11-09T02:10:22.489Z,11.18
2022-11-09T02:11:22.259Z,11.18
2022-11-09T02:12:22.291Z,11.18
2022-11-09T02:13:25.343Z,11.18
2022-11-09T02:14:25.361Z,11.19
2022-11-09T02:15:22.211Z,11.19
2022-11-09T02:16:22.415Z,11.22
2022-11-09T02:17:22.293Z,11.23
2022-11-09T02:18:22.200Z,11.23
2022-11-09T02:19:22.209Z,11.25
2022-11-09T02:20:22.162Z,11.26
2022-11-09T02:21:22.192Z,11.29
2022-11-09T02:22:22.234Z,11.29
2022-11-09T02:23:22.464Z,11.29
2022-11-09T02:24:22.311Z,11.29
2022-11-09T02:25:22.243Z,11.26
2022-11-09T02:26:22.134Z,11.27
2022-11-09T02:27:22.227Z,11.29
2022-11-09T02:28:22.244Z,11.29
2022-11-09T02:29:22.195Z,11.29
2022-11-09T02:30:22.153Z,11.29
2022-11-09T02:31:21.977Z,11.27
2022-11-09T02:32:21.953Z,11.29
2022-11-09T02:33:24.975Z,11.26
2022-11-09T02:34:24.935Z,11.27
2022-11-09T02:35:21.955Z,11.22
2022-11-09T02:36:21.889Z,11.18
2022-11-09T02:37:21.871Z,11.17
2022-11-09T02:38:21.872Z,11.12
2022-11-09T02:39:21.847Z,11.10
2022-11-09T02:40:21.856Z,11.08
2022-11-09T02:41:21.838Z,11.05
2022-11-09T02:42:22.003Z,11.05
2022-11-09T02:43:22.161Z,11.04
2022-11-09T02:44:21.779Z,11.02
2022-11-09T02:45:21.751Z,11.00
2022-11-09T02:46:21.750Z,10.97
2022-11-09T02:47:21.789Z,10.96
2022-11-09T02:48:21.728Z,10.93
2022-11-09T02:49:21.703Z,10.93
2022-11-09T02:50:21.695Z,10.92
2022-11-09T02:51:21.671Z,10.90
2022-11-09T02:52:21.656Z,10.87
2022-11-09T02:53:24.703Z,10.87
2022-11-09T02:54:24.642Z,10.84
2022-11-09T02:55:21.611Z,10.81
2022-11-09T02:56:21.603Z,10.79
2022-11-09T02:57:21.597Z,10.76
2022-11-09T02:58:21.592Z,10.74
2022-11-09T02:59:21.613Z,10.72
2022-11-09T03:00:21.545Z,10.71
2022-11-09T03:01:21.583Z,10.69
2022-11-09T03:02:21.523Z,10.68
2022-11-09T03:03:21.754Z,10.67
2022-11-09T03:04:21.500Z,10.64
2022-11-09T03:05:21.524Z,10.64
2022-11-09T03:06:21.475Z,10.63
2022-11-09T03:07:21.447Z,10.61
2022-11-09T03:08:21.446Z,10.60
2022-11-09T03:09:21.425Z,10.60
2022-11-09T03:10:21.405Z,10.59
2022-11-09T03:11:21.489Z,10.59
2022-11-09T03:12:21.386Z,10.56
2022-11-09T03:13:24.357Z,10.56
2022-11-09T03:14:24.375Z,10.56
2022-11-09T03:15:21.339Z,10.53
2022-11-09T03:16:21.328Z,10.54
2022-11-09T03:17:21.399Z,10.53
2022-11-09T03:18:21.298Z,10.53
2022-11-09T03:19:21.289Z,10.54
2022-11-09T03:20:21.281Z,10.54
2022-11-09T03:21:21.264Z,10.56
2022-11-09T03:22:21.249Z,10.56
2022-11-09T03:23:21.556Z,10.54
2022-11-09T03:24:21.221Z,10.57
2022-11-09T03:25:21.220Z,10.57
2022-11-09T03:26:21.199Z,10.59
2022-11-09T03:27:21.171Z,10.60
2022-11-09T03:28:21.215Z,10.61
2022-11-09T03:29:21.148Z,10.63
2022-11-09T03:30:21.121Z,10.64
2022-11-09T03:31:21.141Z,10.68
2022-11-09T03:32:21.122Z,10.71
2022-11-09T03:33:24.121Z,10.74
2022-11-09T03:34:24.100Z,10.76
2022-11-09T03:35:21.061Z,10.76
2022-11-09T03:36:21.044Z,10.78
2022-11-09T03:37:21.162Z,10.79
2022-11-09T03:38:21.029Z,10.81
2022-11-09T03:39:21.023Z,10.81
2022-11-09T03:40:20.995Z,10.81
2022-11-09T03:41:20.986Z,10.82
2022-11-09T03:42:20.977Z,10.82
2022-11-09T03:43:21.336Z,10.86
2022-11-09T03:44:20.937Z,10.86
2022-11-09T03:45:20.934Z,10.86
2022-11-09T03:46:20.918Z,10.86
2022-11-09T03:47:20.904Z,10.89
2022-11-09T03:48:20.901Z,10.92
2022-11-09T03:49:20.897Z,10.94
2022-11-09T03:50:20.921Z,10.99
2022-11-09T03:51:20.888Z,11.00
2022-11-09T03:52:20.841Z,11.02
2022-11-09T03:53:23.841Z,11.05
2022-11-09T03:54:23.819Z,11.07
2022-11-09T03:55:20.799Z,11.07
2022-11-09T03:56:20.849Z,11.07
2022-11-09T03:57:20.788Z,11.05
2022-11-09T03:58:20.742Z,11.07
2022-11-09T03:59:20.750Z,11.08
2022-11-09T04:00:20.732Z,11.08
2022-11-09T04:01:20.784Z,11.08
2022-11-09T04:02:20.734Z,11.08
2022-11-09T04:03:21.077Z,11.07
2022-11-09T04:04:20.674Z,11.07
2022-11-09T04:05:20.657Z,11.05
2022-11-09T04:06:20.695Z,11.07
2022-11-09T04:07:20.691Z,11.08
2022-11-09T04:08:20.612Z,11.08
2022-11-09T04:09:20.613Z,11.08
2022-11-09T04:10:20.590Z,11.11
2022-11-09T04:11:20.583Z,11.14
2022-11-09T04:12:20.625Z,11.18
2022-11-09T04:13:23.571Z,11.19
2022-11-09T04:14:23.545Z,11.25
2022-11-09T04:15:20.526Z,11.25
2022-11-09T04:16:20.508Z,11.25
2022-11-09T04:17:20.507Z,11.25
2022-11-09T04:18:20.506Z,11.29
2022-11-09T04:19:20.537Z,11.29
2022-11-09T04:20:20.466Z,11.27
2022-11-09T04:21:23.777Z,11.27
2022-11-09T04:22:20.438Z,11.23
2022-11-09T04:23:20.654Z,11.22
2022-11-09T04:24:20.388Z,11.19
2022-11-09T04:25:20.447Z,11.18
2022-11-09T04:26:20.371Z,11.17
2022-11-09T04:27:20.339Z,11.14
2022-11-09T04:28:20.329Z,11.11
2022-11-09T04:29:20.328Z,11.10
2022-11-09T04:30:20.310Z,11.10
2022-11-09T04:31:24.193Z,11.08
2022-11-09T04:32:21.281Z,11.08
2022-11-09T04:33:23.406Z,11.10
2022-11-09T04:34:23.269Z,11.11
2022-11-09T04:35:20.251Z,11.10
2022-11-09T04:36:20.222Z,11.10
2022-11-09T04:37:20.251Z,11.14
2022-11-09T04:38:20.200Z,11.15
2022-11-09T04:39:20.195Z,11.15
2022-11-09T04:40:20.143Z,11.17
2022-11-09T04:41:20.150Z,11.19
2022-11-09T04:42:20.140Z,11.22
2022-11-09T04:43:20.460Z,11.22
2022-11-09T04:44:20.095Z,11.26
2022-11-09T04:45:20.089Z,11.26
2022-11-09T04:46:20.077Z,11.29
2022-11-09T04:47:20.068Z,11.33
2022-11-09T04:48:20.037Z,11.32
2022-11-09T04:49:20.056Z,11.36
2022-11-09T04:50:20.008Z,11.40
2022-11-09T04:51:20.063Z,11.40
2022-11-09T04:52:19.999Z,11.43
2022-11-09T04:53:23.222Z,11.43
2022-11-09T04:54:22.976Z,11.45
2022-11-09T04:55:19.954Z,11.43
2022-11-09T04:56:19.938Z,11.43
2022-11-09T04:57:19.957Z,11.43
2022-11-09T04:58:24.653Z,11.43
2022-11-09T04:59:20.961Z,11.45
2022-11-09T05:00:19.867Z,11.44
2022-11-09T05:01:19.861Z,11.45
2022-11-09T05:02:19.842Z,11.47
2022-11-09T05:03:20.305Z,11.48
2022-11-09T05:04:19.865Z,11.48
2022-11-09T05:05:19.859Z,11.50
2022-11-09T05:06:19.788Z,11.51
2022-11-09T05:07:19.772Z,11.50
2022-11-09T05:08:19.753Z,11.48
2022-11-09T05:09:19.746Z,11.48
2022-11-09T05:10:19.741Z,11.48
2022-11-09T05:11:19.743Z,11.47
2022-11-09T05:12:19.694Z,11.45
2022-11-09T05:13:22.877Z,11.44
2022-11-09T05:14:22.686Z,11.45
2022-11-09T05:15:19.662Z,11.43
2022-11-09T05:16:19.665Z,11.41
2022-11-09T05:17:19.645Z,11.37
2022-11-09T05:18:19.615Z,11.33
2022-11-09T05:19:19.607Z,11.30
2022-11-09T05:20:19.575Z,11.25
2022-11-09T05:21:19.566Z,11.22
2022-11-09T05:22:19.606Z,11.18
2022-11-09T05:23:19.869Z,11.15
2022-11-09T05:24:19.523Z,11.14
2022-11-09T05:25:19.517Z,11.12
2022-11-09T05:26:19.564Z,11.14
2022-11-09T05:27:19.478Z,11.12
2022-11-09T05:28:19.498Z,11.11
2022-11-09T05:29:19.461Z,11.11
2022-11-09T05:30:19.428Z,11.12
2022-11-09T05:31:19.478Z,11.12
2022-11-09T05:32:19.412Z,11.14
2022-11-09T05:33:22.665Z,11.15
2022-11-09T05:34:22.390Z,11.19
2022-11-09T05:35:19.373Z,11.19
2022-11-09T05:36:19.352Z,11.19
2022-11-09T05:37:19.360Z,11.25
2022-11-09T05:38:19.318Z,11.26
2022-11-09T05:39:19.311Z,11.27
2022-11-09T05:40:19.291Z,11.30
2022-11-09T05:41:19.284Z,11.29
2022-11-09T05:42:19.324Z,11.32
2022-11-09T05:43:19.632Z,11.33
2022-11-09T05:44:19.234Z,11.33
2022-11-09T05:45:41.326Z,11.35
2022-11-09T05:46:20.202Z,11.35
2022-11-09T05:47:19.191Z,11.36
2022-11-09T05:48:19.234Z,11.33
2022-11-09T05:49:19.183Z,11.35
2022-11-09T05:50:19.146Z,11.33
2022-11-09T05:51:19.147Z,11.35
2022-11-09T05:52:19.125Z,11.32
2022-11-09T05:53:22.804Z,11.32
2022-11-09T05:54:22.278Z,11.35
2022-11-09T05:55:19.105Z,11.35
2022-11-09T05:56:19.186Z,11.36
2022-11-09T05:57:19.209Z,11.41
2022-11-09T05:58:19.162Z,11.43
2022-11-09T05:59:19.098Z,11.43
2022-11-09T06:00:19.058Z,11.47
2022-11-09T06:01:19.146Z,11.47
2022-11-09T06:02:19.113Z,11.47
2022-11-09T06:03:19.365Z,11.48
2022-11-09T06:04:19.111Z,11.50
2022-11-09T06:05:19.359Z,11.48
2022-11-09T06:06:19.291Z,11.51
2022-11-09T06:07:19.017Z,11.50
2022-11-09T06:08:19.341Z,11.52
2022-11-09T06:09:19.366Z,11.54
2022-11-09T06:10:18.921Z,11.57
2022-11-09T06:11:23.838Z,11.60
2022-11-09T06:12:19.941Z,11.63
2022-11-09T06:13:22.234Z,11.66
2022-11-09T06:14:21.933Z,11.70
2022-11-09T06:15:18.843Z,11.70
2022-11-09T06:16:18.922Z,11.73
2022-11-09T06:17:18.894Z,11.75
2022-11-09T06:18:18.870Z,11.77
2022-11-09T06:19:19.112Z,11.77
2022-11-09T06:20:18.854Z,11.80
2022-11-09T06:21:18.786Z,11.83
2022-11-09T06:22:18.756Z,11.83
2022-11-09T06:23:19.129Z,11.83
2022-11-09T06:24:18.764Z,11.83
2022-11-09T06:25:18.705Z,11.86
2022-11-09T06:26:18.698Z,11.86
2022-11-09T06:27:18.698Z,11.87
2022-11-09T06:28:18.775Z,11.88
2022-11-09T06:29:18.708Z,11.88
2022-11-09T06:30:18.643Z,11.87
2022-11-09T06:31:18.675Z,11.87
2022-11-09T06:32:18.620Z,11.90
2022-11-09T06:33:21.932Z,11.91
2022-11-09T06:34:21.834Z,11.95
2022-11-09T06:35:19.379Z,11.90
2022-11-09T06:36:18.538Z,11.91
2022-11-09T06:37:18.619Z,11.88
2022-11-09T06:38:24.989Z,11.87
2022-11-09T06:39:18.761Z,11.87
2022-11-09T06:40:18.559Z,11.86
2022-11-09T06:41:18.442Z,11.86
2022-11-09T06:42:18.610Z,11.86
2022-11-09T06:43:20.859Z,11.83
2022-11-09T06:44:18.639Z,11.83
2022-11-09T06:45:18.622Z,11.78
2022-11-09T06:46:18.807Z,11.78
2022-11-09T06:47:18.605Z,11.75
2022-11-09T06:48:18.350Z,11.73
2022-11-09T06:49:18.445Z,11.72
2022-11-09T06:50:18.618Z,11.69
2022-11-09T06:51:18.511Z,11.69
2022-11-09T06:52:18.475Z,11.69
2022-11-09T06:53:21.773Z,11.66
2022-11-09T06:54:21.358Z,11.69
2022-11-09T06:55:18.338Z,11.66
2022-11-09T06:56:18.255Z,11.65
2022-11-09T06:57:18.190Z,11.65
2022-11-09T06:58:18.208Z,11.63
2022-11-09T06:59:18.186Z,11.65
2022-11-09T07:00:18.130Z,11.65
2022-11-09T07:01:18.143Z,11.65
2022-11-09T07:02:18.139Z,11.66
2022-11-09T07:03:18.419Z,11.66
2022-11-09T07:04:18.090Z,11.66
2022-11-09T07:05:18.111Z,11.66
2022-11-09T07:06:18.072Z,11.65
2022-11-09T07:07:18.267Z,11.65
2022-11-09T07:08:18.043Z,11.66
2022-11-09T07:09:18.040Z,11.65
2022-11-09T07:10:18.033Z,11.66
2022-11-09T07:11:18.308Z,11.66
2022-11-09T07:12:17.982Z,11.68
2022-11-09T07:13:21.597Z,11.68
2022-11-09T07:14:20.982Z,11.72
2022-11-09T07:15:18.011Z,11.70
2022-11-09T07:16:18.052Z,11.72
2022-11-09T07:17:17.975Z,11.70
2022-11-09T07:18:17.965Z,11.73
2022-11-09T07:19:17.955Z,11.73
2022-11-09T07:20:17.942Z,11.77
2022-11-09T07:21:17.872Z,11.77
2022-11-09T07:22:17.870Z,11.78
2022-11-09T07:23:18.129Z,11.80
2022-11-09T07:24:17.878Z,11.78
2022-11-09T07:25:17.894Z,11.78
2022-11-09T07:26:17.810Z,11.78
2022-11-09T07:27:17.797Z,11.77
2022-11-09T07:28:17.766Z,11.75
2022-11-09T07:29:17.742Z,11.73
2022-11-09T07:30:17.709Z,11.75
2022-11-09T07:31:17.748Z,11.77
2022-11-09T07:32:17.688Z,11.77
2022-11-09T07:33:20.720Z,11.78
2022-11-09T07:34:20.678Z,11.83
2022-11-09T07:35:25.160Z,11.81
2022-11-09T07:36:21.409Z,11.84
2022-11-09T07:37:17.653Z,11.87
2022-11-09T07:38:17.575Z,11.90
2022-11-09T07:39:17.564Z,11.90
2022-11-09T07:40:17.550Z,11.88
2022-11-09T07:41:17.534Z,11.88
2022-11-09T07:42:17.515Z,11.87
2022-11-09T07:43:17.723Z,11.86
2022-11-09T07:44:17.492Z,11.84
2022-11-09T07:45:17.475Z,11.78
2022-11-09T07:46:17.463Z,11.80
2022-11-09T07:47:18.473Z,11.73
2022-11-09T07:48:17.435Z,11.72
2022-11-09T07:49:17.451Z,11.70
2022-11-09T07:50:17.404Z,11.68
2022-11-09T07:51:17.457Z,11.65
2022-11-09T07:52:17.378Z,11.65
2022-11-09T07:53:20.614Z,11.63
2022-11-09T07:54:20.362Z,11.63
2022-11-09T07:55:17.329Z,11.62
2022-11-09T07:56:17.320Z,11.62
2022-11-09T07:57:17.332Z,11.62
2022-11-09T07:58:17.289Z,11.63
2022-11-09T07:59:17.306Z,11.63
2022-11-09T08:00:22.494Z,11.65
2022-11-09T08:01:18.270Z,11.66
2022-11-09T08:02:17.250Z,11.66
2022-11-09T08:03:17.499Z,11.66
2022-11-09T08:04:17.204Z,11.68
2022-11-09T08:05:17.220Z,11.68
2022-11-09T08:06:18.641Z,11.69
2022-11-09T08:07:17.196Z,11.69
2022-11-09T08:08:17.144Z,11.69
2022-11-09T08:09:17.158Z,11.68
2022-11-09T08:10:17.121Z,11.69
2022-11-09T08:11:17.134Z,11.69
2022-11-09T08:12:17.094Z,11.70
2022-11-09T08:13:20.497Z,11.70
2022-11-09T08:14:20.072Z,11.75
2022-11-09T08:15:17.056Z,11.75
2022-11-09T08:16:17.032Z,11.80
2022-11-09T08:17:17.083Z,11.83
2022-11-09T08:18:17.068Z,11.90
2022-11-09T08:19:16.985Z,11.95
2022-11-09T08:20:16.977Z,12.00
2022-11-09T08:21:16.963Z,12.03
2022-11-09T08:22:16.954Z,12.04
2022-11-09T08:23:16.954Z,12.07
2022-11-09T08:24:16.925Z,12.12
2022-11-09T08:25:16.907Z,12.15
2022-11-09T08:26:17.038Z,12.20
2022-11-09T08:27:16.906Z,12.24
2022-11-09T08:28:17.196Z,12.31
2022-11-09T08:29:16.846Z,12.35
2022-11-09T08:30:16.843Z,12.37
2022-11-09T08:31:16.820Z,12.42
2022-11-09T08:32:16.816Z,12.42
2022-11-09T08:33:19.818Z,12.46
2022-11-09T08:34:19.799Z,12.47
2022-11-09T08:35:16.766Z,12.49
2022-11-09T08:36:16.758Z,12.54
2022-11-09T08:37:16.740Z,12.58
2022-11-09T08:38:16.841Z,12.61
2022-11-09T08:39:16.727Z,12.65
2022-11-09T08:40:16.699Z,12.70
2022-11-09T08:41:16.682Z,12.72
2022-11-09T08:42:16.672Z,12.76
2022-11-09T08:43:16.683Z,12.79
2022-11-09T08:44:16.641Z,12.82
2022-11-09T08:45:16.632Z,12.87
2022-11-09T08:46:16.613Z,12.90
2022-11-09T08:47:16.600Z,12.93
2022-11-09T08:48:16.620Z,12.97
2022-11-09T08:49:16.572Z,13.01
2022-11-09T08:50:16.583Z,13.08
2022-11-09T08:51:16.544Z,13.11
2022-11-09T08:52:16.537Z,13.13
2022-11-09T08:53:19.516Z,13.16
2022-11-09T08:54:19.527Z,13.20
2022-11-09T08:55:16.524Z,13.22
2022-11-09T08:56:16.477Z,13.25
2022-11-09T08:57:16.468Z,13.27
2022-11-09T08:58:16.520Z,13.28
2022-11-09T08:59:16.443Z,13.31
2022-11-09T09:00:16.424Z,13.37
2022-11-09T09:01:17.447Z,13.35
2022-11-09T09:02:16.468Z,13.37
2022-11-09T09:03:16.379Z,13.38
2022-11-09T09:04:16.367Z,13.41
2022-11-09T09:05:16.359Z,13.42
2022-11-09T09:06:16.339Z,13.44
2022-11-09T09:07:16.408Z,13.46
2022-11-09T09:08:16.317Z,13.49
2022-11-09T09:09:16.302Z,13.53
2022-11-09T09:10:16.291Z,13.56
2022-11-09T09:11:16.367Z,13.63
2022-11-09T09:12:16.260Z,13.68
2022-11-09T09:13:19.241Z,13.74
2022-11-09T09:14:19.242Z,13.78
2022-11-09T09:15:16.222Z,13.79
2022-11-09T09:16:16.230Z,13.81
2022-11-09T09:17:16.192Z,13.83
2022-11-09T09:18:16.232Z,13.85
2022-11-09T09:19:16.161Z,13.89
2022-11-09T09:20:16.155Z,13.90
2022-11-09T09:21:16.134Z,13.89
2022-11-09T09:22:16.124Z,13.92
2022-11-09T09:23:16.103Z,13.95
2022-11-09T09:24:16.125Z,13.92
2022-11-09T09:25:16.087Z,13.93
2022-11-09T09:26:16.066Z,13.89
2022-11-09T09:27:16.046Z,13.90
2022-11-09T09:28:16.038Z,13.89
2022-11-09T09:29:16.025Z,13.89
2022-11-09T09:30:16.039Z,13.83
2022-11-09T09:31:18.575Z,13.86
2022-11-09T09:32:15.987Z,13.89
2022-11-09T09:33:18.968Z,13.93
2022-11-09T09:34:18.999Z,14.00
2022-11-09T09:35:15.977Z,14.05
2022-11-09T09:36:15.931Z,14.14
2022-11-09T09:37:15.909Z,14.26
2022-11-09T09:38:15.898Z,14.32
2022-11-09T09:39:15.936Z,14.41
2022-11-09T09:40:15.900Z,14.48
2022-11-09T09:41:15.860Z,14.58
2022-11-09T09:42:15.850Z,14.63
2022-11-09T09:43:15.836Z,14.69
2022-11-09T09:44:15.873Z,14.73
2022-11-09T09:45:15.803Z,14.79
2022-11-09T09:46:15.792Z,14.81
2022-11-09T09:47:15.773Z,14.84
2022-11-09T09:48:15.762Z,14.85
2022-11-09T09:49:15.746Z,14.86
2022-11-09T09:50:15.816Z,14.85
2022-11-09T09:51:15.722Z,14.85
2022-11-09T09:52:15.703Z,14.86
2022-11-09T09:53:24.391Z,14.86
2022-11-09T09:54:19.710Z,14.89
2022-11-09T09:55:15.664Z,14.85
2022-11-09T09:56:15.674Z,14.82
2022-11-09T09:57:15.642Z,14.81
2022-11-09T09:58:15.614Z,14.73
2022-11-09T09:59:15.616Z,14.68
2022-11-09T10:00:15.596Z,14.59
2022-11-09T10:01:15.596Z,14.53
2022-11-09T10:02:15.586Z,14.47
2022-11-09T10:03:15.562Z,14.43
2022-11-09T10:04:15.624Z,14.41
2022-11-09T10:05:15.529Z,14.41
2022-11-09T10:06:15.509Z,14.43
2022-11-09T10:07:15.619Z,14.48
2022-11-09T10:08:15.505Z,14.51
2022-11-09T10:09:15.469Z,14.53
2022-11-09T10:10:15.467Z,14.51
2022-11-09T10:11:15.441Z,14.50
2022-11-09T10:12:15.459Z,14.47
2022-11-09T10:13:18.411Z,14.50
2022-11-09T10:14:18.415Z,14.50
2022-11-09T10:15:15.389Z,14.47
2022-11-09T10:16:15.382Z,14.45
2022-11-09T10:17:15.489Z,14.47
2022-11-09T10:18:15.341Z,14.45
2022-11-09T10:19:15.326Z,14.41
2022-11-09T10:20:15.313Z,14.35
2022-11-09T10:21:15.318Z,14.33
2022-11-09T10:22:15.288Z,14.30
2022-11-09T10:23:15.304Z,14.33
2022-11-09T10:24:15.265Z,14.33
2022-11-09T10:26:16.452Z,14.35
2022-11-09T10:27:15.225Z,14.36
2022-11-09T10:28:15.207Z,14.35
2022-11-09T10:29:16.745Z,14.36
2022-11-09T10:30:15.189Z,14.33
2022-11-09T10:31:15.157Z,14.32
2022-11-09T10:32:15.159Z,14.28
2022-11-09T10:33:18.159Z,14.26
2022-11-09T10:34:18.141Z,14.35
2022-11-09T10:35:15.173Z,14.35
2022-11-09T10:36:15.091Z,14.41
2022-11-09T10:37:15.080Z,14.45
2022-11-09T10:38:15.073Z,14.50
2022-11-09T10:39:15.147Z,14.54
2022-11-09T10:40:15.041Z,14.60
2022-11-09T10:41:15.062Z,14.65
2022-11-09T10:42:15.010Z,14.70
2022-11-09T10:43:14.995Z,14.77
2022-11-09T10:44:17.467Z,14.84
2022-11-09T10:45:14.976Z,14.85
2022-11-09T10:46:14.956Z,14.86
2022-11-09T10:47:14.972Z,14.91
2022-11-09T10:48:14.924Z,14.96
2022-11-09T10:49:14.913Z,14.99
2022-11-09T10:50:14.894Z,15.04
2022-11-09T10:51:14.934Z,15.10
2022-11-09T10:52:14.934Z,15.15
2022-11-09T10:53:17.853Z,15.18
2022-11-09T10:54:17.915Z,15.29
2022-11-09T10:55:14.835Z,15.36
2022-11-09T10:56:20.331Z,15.42
2022-11-09T10:57:15.835Z,15.55
2022-11-09T10:58:14.915Z,15.65
2022-11-09T10:59:14.777Z,15.77
2022-11-09T11:00:14.769Z,15.83
2022-11-09T11:01:14.799Z,15.84
2022-11-09T11:02:14.791Z,15.83
2022-11-09T11:03:14.762Z,15.84
2022-11-09T11:04:14.697Z,15.86
2022-11-09T11:05:14.710Z,15.82
2022-11-09T11:06:14.678Z,15.83
2022-11-09T11:07:18.341Z,15.84
2022-11-09T11:08:15.691Z,15.84
2022-11-09T11:09:14.629Z,15.86
2022-11-09T11:10:14.622Z,15.92
2022-11-09T11:11:32.685Z,15.98
2022-11-09T11:12:15.600Z,15.98
2022-11-09T11:13:17.735Z,15.94
2022-11-09T11:14:22.822Z,15.84
2022-11-09T11:15:15.552Z,15.82
2022-11-09T11:16:14.578Z,15.79
2022-11-09T11:17:14.731Z,15.77
2022-11-09T11:18:14.541Z,15.76
2022-11-09T11:19:14.523Z,15.75
2022-11-09T11:20:14.493Z,15.72
2022-11-09T11:21:18.389Z,15.61
2022-11-09T11:22:14.458Z,15.57
2022-11-09T11:23:14.500Z,15.44
2022-11-09T11:24:14.455Z,15.35
2022-11-09T11:25:14.418Z,15.25
2022-11-09T11:26:14.427Z,15.14
2022-11-09T11:27:14.402Z,15.04
2022-11-09T11:28:14.374Z,14.94
2022-11-09T11:29:14.351Z,14.85
2022-11-09T11:30:14.350Z,14.77
2022-11-09T11:31:14.379Z,14.68
2022-11-09T11:32:14.310Z,14.60
2022-11-09T11:33:17.307Z,14.48
2022-11-09T11:34:38.476Z,14.45
2022-11-09T11:35:15.280Z,14.44
2022-11-09T11:36:14.264Z,14.45
2022-11-09T11:37:14.291Z,14.50
2022-11-09T11:38:14.374Z,14.45
2022-11-09T11:39:14.212Z,14.44
2022-11-09T11:40:14.204Z,14.43
2022-11-09T11:41:14.182Z,14.44
2022-11-09T11:42:14.174Z,14.44
2022-11-09T11:43:14.232Z,14.47
2022-11-09T11:44:14.154Z,14.55
2022-11-09T11:45:38.838Z,14.65
2022-11-09T11:46:15.115Z,14.70
2022-11-09T11:47:14.103Z,14.73
2022-11-09T11:48:14.109Z,14.77
2022-11-09T11:49:14.096Z,14.78
2022-11-09T11:50:14.055Z,14.78
2022-11-09T11:51:14.046Z,14.73
2022-11-09T11:52:14.237Z,14.72
2022-11-09T11:53:17.389Z,14.81
2022-11-09T11:54:17.155Z,14.78
2022-11-09T11:55:14.086Z,14.77
2022-11-09T11:56:14.077Z,14.81
2022-11-09T11:57:14.123Z,14.86
2022-11-09T11:58:14.196Z,14.96
2022-11-09T11:59:14.150Z,15.04
2022-11-09T12:00:14.040Z,15.10
2022-11-09T12:01:13.924Z,15.17
2022-11-09T12:02:13.955Z,15.21
2022-11-09T12:03:14.114Z,15.25
2022-11-09T12:04:13.869Z,15.31
2022-11-09T12:05:13.912Z,15.36
2022-11-09T12:06:13.844Z,15.37
2022-11-09T12:07:13.886Z,15.39
2022-11-09T12:08:13.812Z,15.39
2022-11-09T12:09:13.794Z,15.31
2022-11-09T12:10:13.784Z,15.22
2022-11-09T12:11:13.799Z,15.21
2022-11-09T12:12:13.766Z,15.21
2022-11-09T12:13:16.734Z,15.21
2022-11-09T12:14:16.746Z,15.19
2022-11-09T12:15:13.716Z,15.14
2022-11-09T12:16:13.737Z,15.09
2022-11-09T12:17:13.686Z,15.06
2022-11-09T12:18:13.676Z,15.04
2022-11-09T12:19:13.657Z,15.06
2022-11-09T12:20:13.650Z,15.07
2022-11-09T12:21:13.628Z,15.07
2022-11-09T12:22:13.659Z,15.15
2022-11-09T12:23:13.600Z,15.24
2022-11-09T12:24:13.592Z,15.36
2022-11-09T12:25:13.620Z,15.43
2022-11-09T12:26:17.064Z,15.59
2022-11-09T12:28:14.543Z,15.83
2022-11-09T12:29:13.523Z,15.94
2022-11-09T12:30:13.514Z,16.02
2022-11-09T12:31:13.564Z,16.09
2022-11-09T12:32:13.480Z,16.09
2022-11-09T12:33:16.465Z,16.15
2022-11-09T12:34:16.492Z,16.10
2022-11-09T12:35:13.444Z,16.13
2022-11-09T12:36:13.457Z,16.10
2022-11-09T12:37:13.419Z,16.08
2022-11-09T12:38:13.585Z,16.02
2022-11-09T12:39:13.386Z,16.02
2022-11-09T12:40:13.481Z,15.92
2022-11-09T12:41:13.417Z,15.88
2022-11-09T12:42:13.347Z,15.80
2022-11-09T12:43:13.354Z,15.79
2022-11-09T12:44:17.066Z,15.75
2022-11-09T12:45:13.317Z,15.68
2022-11-09T12:46:13.289Z,15.68
2022-11-09T12:47:13.289Z,15.68
2022-11-09T12:48:13.258Z,15.72
2022-11-09T12:49:13.301Z,15.72
2022-11-09T12:50:13.267Z,15.72
2022-11-09T12:51:13.220Z,15.73
2022-11-09T12:52:13.210Z,15.72
2022-11-09T12:53:16.200Z,15.67
2022-11-09T12:54:16.231Z,15.67